Time;durP1;ratioP1;P1;durP2;ratioP2;P2;SDS_P1;SDS_P2;PMS_P1;PMS_P2;Temp;Humidity;BMP_temperature;BMP_pressure;BME280_temperature;BME280_humidity;BME280_pressure;Samples;Min_cycle;Max_cycle;Signal;HPM_P1;HPM_P2
2023/12/19 00:02:13;;;;;;;0.38;0.20;;;;;;;5.48;83.90;99769.88;5066704;28;20068;-86
2023/12/19 00:04:42;;;;;;;0.10;0.10;;;;;;;5.34;83.74;99740.72;5065447;28;20068;-86
2023/12/19 00:07:09;;;;;;;1.35;0.57;;;;;;;5.50;83.52;99766.38;5066924;28;20139;-85
2023/12/19 00:09:36;;;;;;;0.20;0.20;;;;;;;5.51;83.73;99760.28;5070591;28;20072;-85
2023/12/19 00:12:06;;;;;;;0.40;0.15;;;;;;;5.50;83.79;99747.38;5050968;28;20044;-85
2023/12/19 00:14:33;;;;;;;0.10;0.10;;;;;;;5.52;83.88;99743.00;5067358;28;20076;-85
2023/12/19 00:17:01;;;;;;;0.10;0.10;;;;;;;5.53;83.94;99735.19;5052522;28;20041;-85
2023/12/19 00:19:28;;;;;;;0.50;0.20;;;;;;;5.54;83.91;99720.47;5070165;28;20068;-85
2023/12/19 00:21:57;;;;;;;0.73;0.20;;;;;;;5.55;84.05;99710.97;5051630;28;20075;-85
2023/12/19 00:24:24;;;;;;;0.93;0.20;;;;;;;5.52;84.03;99704.94;5051583;28;20127;-85
2023/12/19 00:26:51;;;;;;;0.80;0.20;;;;;;;5.55;83.68;99696.25;5053014;28;20076;-84
2023/12/19 00:29:18;;;;;;;0.10;0.10;;;;;;;5.53;83.87;99687.63;5051351;28;20079;-84
2023/12/19 00:31:46;;;;;;;0.20;0.20;;;;;;;5.56;84.16;99676.34;5050722;28;20076;-85
2023/12/19 00:34:13;;;;;;;0.10;0.10;;;;;;;5.58;83.84;99670.25;5068393;28;20587;-83
2023/12/19 00:36:40;;;;;;;0.98;0.25;;;;;;;5.53;83.87;99646.97;5052004;28;20074;-83
2023/12/19 00:39:09;;;;;;;0.10;0.10;;;;;;;5.49;84.02;99628.91;5070460;28;20079;-85
2023/12/19 00:41:36;;;;;;;0.10;0.10;;;;;;;5.60;84.28;99624.34;5065432;28;20087;-85
2023/12/19 00:44:03;;;;;;;1.42;0.10;;;;;;;5.60;84.22;99605.31;5071314;28;20491;-86
2023/12/19 00:46:31;;;;;;;0.30;0.10;;;;;;;5.58;84.07;99599.34;5057191;28;20044;-85
2023/12/19 00:48:58;;;;;;;0.10;0.10;;;;;;;5.62;84.41;99588.00;5063098;28;20037;-83
2023/12/19 00:51:25;;;;;;;0.43;0.10;;;;;;;5.52;84.45;99566.59;5048161;28;20072;-85
2023/12/19 00:53:52;;;;;;;0.10;0.05;;;;;;;5.59;84.48;99575.09;5068994;28;20080;-86
2023/12/19 00:56:20;;;;;;;1.85;0.10;;;;;;;5.62;84.71;99568.09;5070218;28;20106;-84
2023/12/19 00:58:47;;;;;;;1.55;0.10;;;;;;;5.63;84.39;99561.16;5069936;28;20068;-84
2023/12/19 01:01:14;;;;;;;0.25;0.10;;;;;;;5.62;84.37;99542.13;5070682;28;20457;-84
2023/12/19 01:03:43;;;;;;;0.20;0.10;;;;;;;5.65;84.25;99536.03;5067632;28;20113;-85
2023/12/19 01:06:10;;;;;;;1.27;0.10;;;;;;;5.63;84.54;99509.25;5052449;28;20102;-84
2023/12/19 01:08:37;;;;;;;0.05;0.00;;;;;;;5.58;84.36;99516.31;5067451;28;20048;-84
2023/12/19 01:11:04;;;;;;;0.35;0.10;;;;;;;5.51;84.48;99500.84;5049686;28;20086;-84
2023/12/19 01:13:33;;;;;;;0.00;0.00;;;;;;;5.63;84.50;99512.72;5068603;28;20312;-85
2023/12/19 01:16:00;;;;;;;1.33;0.00;;;;;;;5.62;84.28;99499.78;5069691;28;20231;-84
2023/12/19 01:18:27;;;;;;;0.00;0.00;;;;;;;5.67;84.56;99522.13;5062124;28;20045;-85
2023/12/19 01:20:54;;;;;;;0.00;0.00;;;;;;;5.66;84.81;99504.00;5066620;28;20048;-86
2023/12/19 01:23:21;;;;;;;0.10;0.00;;;;;;;5.66;84.58;99498.81;5068054;28;20081;-85
2023/12/19 01:25:48;;;;;;;0.00;0.00;;;;;;;5.64;84.39;99472.91;5056120;28;20053;-85
2023/12/19 01:28:16;;;;;;;0.38;0.30;;;;;;;5.67;84.71;99472.81;5055411;28;20260;-84
2023/12/19 01:30:44;;;;;;;0.63;0.63;;;;;;;5.69;84.93;99465.88;5069980;28;20091;-85
2023/12/19 01:33:10;;;;;;;0.25;0.10;;;;;;;5.71;84.75;99468.41;5050541;28;20084;-84
2023/12/19 01:35:38;;;;;;;1.00;0.10;;;;;;;5.72;84.84;99441.59;5065225;28;20136;-83
2023/12/19 01:38:05;;;;;;;0.90;0.10;;;;;;;5.68;85.11;99422.63;5073604;28;20044;-81
2023/12/19 01:40:33;;;;;;;0.40;0.10;;;;;;;5.67;84.97;99415.75;5071534;28;20076;-84
2023/12/19 01:43:00;;;;;;;0.73;0.10;;;;;;;5.72;85.42;99410.44;5067651;28;20084;-84
2023/12/19 01:45:28;;;;;;;0.05;0.00;;;;;;;5.74;85.26;99412.13;5067137;28;20507;-82
2023/12/19 01:47:57;;;;;;;0.05;0.00;;;;;;;5.74;85.16;99395.66;5061716;28;20056;-84
2023/12/19 01:50:25;;;;;;;0.20;0.10;;;;;;;5.77;85.41;99393.00;5036128;28;20072;-84
2023/12/19 01:52:56;;;;;;;0.10;0.10;;;;;;;5.75;85.07;99371.44;5047581;28;20066;-84
2023/12/19 01:55:25;;;;;;;0.10;0.10;;;;;;;5.76;85.39;99362.75;5069841;28;20064;-84
2023/12/19 01:57:54;;;;;;;0.10;0.08;;;;;;;5.77;85.60;99364.44;5073042;28;20072;-84
2023/12/19 02:00:22;;;;;;;0.10;0.00;;;;;;;5.79;85.34;99347.09;5068750;28;20303;-83
2023/12/19 02:02:51;;;;;;;0.10;0.10;;;;;;;5.83;85.31;99359.13;5070262;28;20098;-84
2023/12/19 02:05:20;;;;;;;0.10;0.10;;;;;;;5.84;85.65;99341.81;5064178;28;20201;-85
2023/12/19 02:07:48;;;;;;;0.20;0.10;;;;;;;5.85;85.58;99330.53;5052095;28;20083;-83
2023/12/19 02:10:16;;;;;;;0.17;0.10;;;;;;;5.86;85.29;99322.72;5071672;28;20162;-83
2023/12/19 02:12:43;;;;;;;0.00;0.00;;;;;;;5.88;85.58;99318.31;5068387;28;20561;-83
2023/12/19 02:15:10;;;;;;;0.10;0.00;;;;;;;5.87;85.50;99313.16;5052134;28;20102;-85
2023/12/19 02:17:37;;;;;;;0.10;0.00;;;;;;;5.89;85.77;99322.63;5069996;28;20056;-85
2023/12/19 02:20:06;;;;;;;0.10;0.05;;;;;;;5.89;85.67;99317.44;5073411;28;20064;-83
2023/12/19 02:22:34;;;;;;;0.10;0.03;;;;;;;5.83;86.16;99283.84;5071180;28;20196;-84
2023/12/19 02:25:03;;;;;;;0.00;0.00;;;;;;;5.92;86.06;99295.75;5060321;28;20072;-83
2023/12/19 02:27:31;;;;;;;0.32;0.00;;;;;;;5.95;86.11;99293.91;5045423;28;20076;-85
2023/12/19 02:29:58;;;;;;;0.22;0.10;;;;;;;5.95;86.35;99286.09;5069394;28;20067;-86
2023/12/19 02:32:25;;;;;;;0.73;0.10;;;;;;;5.96;86.30;99295.59;5052704;28;20106;-85
2023/12/19 02:34:52;;;;;;;1.13;0.05;;;;;;;5.85;86.46;99279.47;5061770;28;20072;-85
2023/12/19 02:37:19;;;;;;;0.13;0.00;;;;;;;5.98;86.12;99300.75;5068112;28;20095;-85
2023/12/19 02:39:47;;;;;;;0.52;0.10;;;;;;;6.04;86.11;99299.75;5063836;28;20667;-85
2023/12/19 02:42:15;;;;;;;0.32;0.20;;;;;;;6.04;86.07;99294.53;5061429;28;20829;-85
2023/12/19 02:44:42;;;;;;;0.50;0.00;;;;;;;6.01;86.11;99292.88;5069504;28;20075;-86
2023/12/19 02:47:09;;;;;;;1.80;0.00;;;;;;;6.06;86.04;99309.19;5072104;28;20554;-79
2023/12/19 02:49:36;;;;;;;0.30;0.00;;;;;;;6.11;86.21;99317.69;5067726;28;20044;-85
2023/12/19 02:52:04;;;;;;;0.32;0.00;;;;;;;6.14;86.19;99308.94;5071026;28;20068;-85
2023/12/19 02:54:31;;;;;;;0.00;0.00;;;;;;;6.11;86.19;99301.25;5070862;28;21322;-86
2023/12/19 02:56:58;;;;;;;0.10;0.10;;;;;;;6.14;86.17;99288.19;5056101;28;20052;-85
2023/12/19 02:59:26;;;;;;;0.00;0.00;;;;;;;6.10;86.06;99290.03;5069646;28;20455;-84
2023/12/19 03:01:54;;;;;;;0.00;0.00;;;;;;;6.20;86.39;99290.63;5069914;28;20072;-85
2023/12/19 03:04:21;;;;;;;0.20;0.00;;;;;;;6.22;85.74;99291.41;5070857;28;20087;-86
2023/12/19 03:06:48;;;;;;;0.00;0.00;;;;;;;6.24;85.90;99287.03;5054452;28;20125;-82
2023/12/19 03:09:15;;;;;;;0.03;0.00;;;;;;;6.24;85.98;99276.66;5070184;28;20381;-83
2023/12/19 03:12:00;;;;;;;0.00;0.00;;;;;;;6.28;85.98;99269.59;5069851;28;20064;-85
2023/12/19 03:14:28;;;;;;;0.00;0.00;;;;;;;6.26;86.09;99268.78;5064780;28;20052;-83
2023/12/19 03:16:55;;;;;;;0.22;0.00;;;;;;;6.27;86.05;99262.72;5052834;28;20098;-85
2023/12/19 03:19:22;;;;;;;0.00;0.00;;;;;;;6.24;86.13;99247.22;5069980;28;20495;-83
2023/12/19 03:21:50;;;;;;;0.00;0.00;;;;;;;6.34;85.82;99269.44;5068716;28;20052;-84
2023/12/19 03:24:17;;;;;;;0.00;0.00;;;;;;;6.34;85.69;99278.09;5068502;28;20083;-83
2023/12/19 03:26:44;;;;;;;0.00;0.00;;;;;;;6.33;85.88;99284.16;5048332;28;20135;-81
2023/12/19 03:29:11;;;;;;;0.00;0.00;;;;;;;6.39;86.09;99290.94;5069754;28;20076;-80
2023/12/19 03:31:40;;;;;;;0.00;0.00;;;;;;;6.38;85.73;99279.69;5053298;28;20102;-82
2023/12/19 03:34:07;;;;;;;0.00;0.00;;;;;;;6.43;86.05;99272.63;5065395;28;20141;-80
2023/12/19 03:36:34;;;;;;;0.32;0.00;;;;;;;6.46;85.77;99276.00;5068897;28;20040;-81
2023/12/19 03:39:02;;;;;;;0.00;0.00;;;;;;;6.47;85.82;99273.38;5069577;28;20500;-80
2023/12/19 03:41:29;;;;;;;0.08;0.00;;;;;;;6.46;85.49;99250.91;5052007;28;20053;-80
2023/12/19 03:43:56;;;;;;;0.08;0.00;;;;;;;6.50;85.40;99262.88;5054267;28;20044;-82
2023/12/19 03:46:23;;;;;;;0.00;0.00;;;;;;;6.51;85.36;99263.72;5065144;28;20071;-81
2023/12/19 03:48:52;;;;;;;0.00;0.00;;;;;;;6.54;85.28;99261.03;5074557;28;20044;-84
2023/12/19 03:51:19;;;;;;;1.08;0.00;;;;;;;6.53;84.99;99261.94;5069166;28;21306;-85
2023/12/19 03:53:46;;;;;;;0.68;0.00;;;;;;;6.54;85.31;99267.13;5069587;28;20056;-82
2023/12/19 03:56:13;;;;;;;0.00;0.00;;;;;;;6.57;85.14;99258.34;5075026;28;20060;-84
2023/12/19 03:58:41;;;;;;;0.35;0.00;;;;;;;6.59;84.90;99282.53;5074855;28;20048;-82
2023/12/19 04:01:07;;;;;;;0.00;0.00;;;;;;;6.60;84.96;99263.47;5074997;28;20420;-81
2023/12/19 04:03:34;;;;;;;0.10;0.00;;;;;;;6.59;84.63;99243.56;5075014;28;20114;-83
2023/12/19 04:06:04;;;;;;;0.47;0.00;;;;;;;6.61;84.34;99259.97;5072102;28;20449;-85
2023/12/19 04:08:31;;;;;;;0.43;0.00;;;;;;;6.61;84.10;99260.81;5072679;28;20459;-80
2023/12/19 04:10:58;;;;;;;0.15;0.00;;;;;;;6.64;84.04;99262.47;5073738;28;20079;-79
2023/12/19 04:13:26;;;;;;;0.10;0.00;;;;;;;6.63;83.52;99269.41;5055635;28;20045;-82
2023/12/19 04:15:52;;;;;;;0.57;0.00;;;;;;;6.64;83.52;99281.50;5072280;28;20080;-81
2023/12/19 04:18:20;;;;;;;0.00;0.00;;;;;;;6.60;83.48;99273.88;5049618;28;20500;-80
2023/12/19 04:20:47;;;;;;;1.13;0.03;;;;;;;6.65;83.30;99292.75;5072537;28;20488;-80
2023/12/19 04:23:15;;;;;;;1.75;0.00;;;;;;;6.61;82.91;99270.38;5070973;28;20102;-81
2023/12/19 04:25:42;;;;;;;0.85;0.00;;;;;;;6.65;83.09;99280.59;5071630;28;20041;-85
2023/12/19 04:28:09;;;;;;;3.08;0.10;;;;;;;6.61;82.72;99267.75;5070832;28;20049;-81
2023/12/19 04:30:36;;;;;;;0.93;0.03;;;;;;;6.63;82.77;99271.19;5047756;28;20097;-82
2023/12/19 04:33:04;;;;;;;0.00;0.00;;;;;;;6.64;82.43;99259.88;5064561;28;20044;-80
2023/12/19 04:35:31;;;;;;;1.27;0.08;;;;;;;6.66;82.58;99282.31;5055911;28;20071;-81
2023/12/19 04:37:58;;;;;;;1.45;0.00;;;;;;;6.66;82.00;99273.69;5075544;28;20073;-84
2023/12/19 04:40:26;;;;;;;1.85;0.47;;;;;;;6.61;81.57;99279.00;5070493;28;20048;-80
2023/12/19 04:42:53;;;;;;;1.85;0.00;;;;;;;6.65;81.83;99288.41;5073386;28;20076;-81
2023/12/19 04:45:21;;;;;;;1.17;0.00;;;;;;;6.62;81.52;99283.28;5072140;28;20052;-82
2023/12/19 04:47:48;;;;;;;1.08;0.00;;;;;;;6.48;81.13;99254.28;5054629;28;20094;-81
2023/12/19 04:50:15;;;;;;;0.50;0.00;;;;;;;6.59;81.20;99273.00;5056140;28;20079;-81
2023/12/19 04:52:42;;;;;;;2.55;0.35;;;;;;;6.59;81.26;99292.94;5075568;28;20049;-80
2023/12/19 04:55:10;;;;;;;1.30;0.10;;;;;;;6.60;80.92;99289.47;5045609;28;20558;-81
2023/12/19 04:57:39;;;;;;;2.40;0.10;;;;;;;6.58;80.59;99286.91;5056178;28;20076;-86
2023/12/19 05:00:09;;;;;;;3.55;0.20;;;;;;;6.60;80.68;99289.47;5055056;28;20503;-83
2023/12/19 05:02:36;;;;;;;0.30;0.10;;;;;;;6.56;80.40;99295.63;5057532;28;20079;-82
2023/12/19 05:05:03;;;;;;;1.52;0.10;;;;;;;6.54;80.68;99300.00;5067958;28;20090;-80
2023/12/19 05:07:31;;;;;;;2.10;0.00;;;;;;;6.55;80.09;99305.19;5071955;28;20094;-80
2023/12/19 05:09:58;;;;;;;3.30;0.08;;;;;;;6.53;80.12;99282.72;5073543;28;20052;-83
2023/12/19 05:12:26;;;;;;;1.65;0.10;;;;;;;6.47;79.85;99294.16;5074115;28;20446;-81
2023/12/19 05:14:55;;;;;;;0.57;0.10;;;;;;;6.38;79.75;99290.09;5071181;28;20474;-83
2023/12/19 05:17:22;;;;;;;1.25;0.10;;;;;;;6.38;79.63;99299.63;5065762;28;20084;-82
2023/12/19 05:19:49;;;;;;;2.50;0.10;;;;;;;6.49;79.57;99325.31;5054182;28;20037;-83
2023/12/19 05:22:15;;;;;;;0.60;0.03;;;;;;;6.47;79.72;99327.09;5065411;28;20084;-82
2023/12/19 05:24:43;;;;;;;2.38;0.20;;;;;;;6.43;79.39;99318.53;5065810;28;20052;-81
2023/12/19 05:27:10;;;;;;;0.70;0.10;;;;;;;6.43;79.13;99316.78;5073867;28;20529;-81
2023/12/19 05:29:37;;;;;;;2.53;0.13;;;;;;;6.38;79.00;99316.06;5073337;28;20074;-82
2023/12/19 05:32:06;;;;;;;0.30;0.05;;;;;;;6.40;79.10;99335.06;5071000;28;20052;-81
2023/12/19 05:34:33;;;;;;;1.90;0.08;;;;;;;6.35;78.77;99333.50;5071547;28;20056;-82
2023/12/19 05:37:00;;;;;;;2.28;0.60;;;;;;;6.33;79.03;99328.31;5072273;28;20044;-81
2023/12/19 05:39:27;;;;;;;1.15;0.10;;;;;;;6.34;78.96;99343.03;5074504;28;20095;-79
2023/12/19 05:41:56;;;;;;;0.40;0.10;;;;;;;6.33;78.96;99332.69;5072413;28;20094;-85
2023/12/19 05:44:24;;;;;;;3.28;0.10;;;;;;;6.30;78.65;99333.59;5072847;28;20060;-84
2023/12/19 05:46:51;;;;;;;1.67;0.25;;;;;;;6.29;79.00;99350.09;5059948;28;20107;-83
2023/12/19 05:49:20;;;;;;;1.02;0.08;;;;;;;6.22;78.51;99357.19;5064580;28;20055;-80
2023/12/19 05:51:47;;;;;;;0.80;0.00;;;;;;;6.25;78.37;99376.19;5064391;28;20103;-80
2023/12/19 05:54:14;;;;;;;0.95;0.10;;;;;;;6.16;78.19;99348.72;5070103;28;20119;-83
2023/12/19 05:56:41;;;;;;;2.13;0.10;;;;;;;6.15;78.40;99362.63;5070954;28;20056;-82
2023/12/19 05:59:08;;;;;;;1.38;0.20;;;;;;;5.94;78.01;99344.13;5063899;28;20135;-82
2023/12/19 06:01:42;;;;;;;1.25;0.00;;;;;;;6.14;77.95;99376.47;5058352;28;20090;-83
2023/12/19 06:04:10;;;;;;;0.52;0.25;;;;;;;6.11;77.95;99400.78;5051600;28;20848;-81
2023/12/19 06:06:44;;;;;;;1.10;0.10;;;;;;;6.04;77.96;99385.41;5069595;28;20064;-86
2023/12/19 06:09:11;;;;;;;1.50;0.55;;;;;;;6.00;77.93;99371.63;5071602;28;20284;-83
2023/12/19 06:11:39;;;;;;;0.68;0.10;;;;;;;6.01;77.76;99390.69;5065254;28;20056;-83
2023/12/19 06:14:07;;;;;;;3.15;0.10;;;;;;;6.02;77.79;99394.97;5059748;28;20081;-82
2023/12/19 06:16:34;;;;;;;1.95;0.10;;;;;;;5.94;77.77;99397.75;5058635;28;20072;-81
2023/12/19 06:19:01;;;;;;;3.05;0.10;;;;;;;5.93;77.71;99412.50;5068862;28;20537;-81
2023/12/19 06:21:28;;;;;;;1.75;0.20;;;;;;;5.91;77.58;99414.25;5068084;28;20049;-83
2023/12/19 06:23:57;;;;;;;1.02;0.03;;;;;;;5.90;77.55;99415.16;5064006;28;20044;-81
2023/12/19 06:26:24;;;;;;;0.93;0.20;;;;;;;5.88;77.42;99427.31;5066151;28;20831;-83
2023/12/19 06:28:51;;;;;;;2.25;0.08;;;;;;;5.86;77.23;99421.34;5071453;28;20075;-80
2023/12/19 06:31:19;;;;;;;1.45;0.73;;;;;;;5.75;77.20;99408.63;5064460;28;20472;-84
2023/12/19 06:33:46;;;;;;;2.38;0.00;;;;;;;5.73;76.85;99414.75;5063136;28;20060;-84
2023/12/19 06:36:28;;;;;;;2.90;0.10;;;;;;;5.78;77.14;99446.63;5054481;28;20059;-80
2023/12/19 06:38:57;;;;;;;2.17;0.00;;;;;;;5.75;77.12;99455.34;5066548;28;20572;-82
2023/12/19 06:41:24;;;;;;;2.50;0.00;;;;;;;5.54;76.86;99435.06;5061509;28;20476;-82
2023/12/19 06:43:52;;;;;;;1.00;0.17;;;;;;;5.65;76.83;99453.00;5065963;28;20063;-82
2023/12/19 06:46:20;;;;;;;0.32;0.10;;;;;;;5.68;76.66;99464.16;5054184;28;20052;-81
2023/12/19 06:48:47;;;;;;;2.50;0.08;;;;;;;5.63;76.71;99476.41;5070626;28;20052;-82
2023/12/19 06:51:24;;;;;;;3.42;0.08;;;;;;;5.64;76.15;99482.44;5072328;28;20098;-85
2023/12/19 06:53:52;;;;;;;3.10;0.03;;;;;;;5.60;76.40;99479.03;5071117;28;20049;-84
2023/12/19 06:56:21;;;;;;;0.65;0.00;;;;;;;5.57;76.10;99480.84;5070680;28;20056;-83
2023/12/19 06:58:48;;;;;;;1.92;0.13;;;;;;;5.56;75.91;99480.00;5072092;28;20124;-82
2023/12/19 07:01:16;;;;;;;0.65;0.00;;;;;;;5.54;76.00;99484.38;5068776;28;20407;-81
2023/12/19 07:03:44;;;;;;;0.68;0.00;;;;;;;5.52;75.98;99488.75;5055798;28;20506;-81
2023/12/19 07:06:14;;;;;;;1.42;0.10;;;;;;;5.37;75.91;99464.00;5069314;28;20040;-80
2023/12/19 07:08:41;;;;;;;0.55;0.10;;;;;;;5.45;75.89;99487.19;5055970;28;20435;-84
2023/12/19 07:11:08;;;;;;;1.48;0.00;;;;;;;5.42;75.56;99506.25;5075538;28;20061;-83
2023/12/19 07:13:37;;;;;;;1.33;0.00;;;;;;;5.41;75.61;99514.94;5069124;28;20908;-82
2023/12/19 07:16:06;;;;;;;0.30;0.00;;;;;;;5.35;75.51;99506.41;5054893;28;20052;-80
2023/12/19 07:18:33;;;;;;;0.47;0.00;;;;;;;5.35;75.36;99522.84;5071262;28;20051;-82
2023/12/19 07:21:00;;;;;;;2.05;0.10;;;;;;;5.33;75.30;99518.56;5067466;28;20044;-80
2023/12/19 07:23:28;;;;;;;0.30;0.10;;;;;;;5.31;75.01;99524.63;5047324;28;20053;-83
2023/12/19 07:25:56;;;;;;;0.45;0.08;;;;;;;5.27;74.41;99519.56;5057111;28;20086;-85
2023/12/19 07:28:23;;;;;;;0.50;0.10;;;;;;;5.22;74.50;99511.88;5059944;28;20553;-84
2023/12/19 07:30:52;;;;;;;1.48;0.00;;;;;;;5.23;74.17;99523.09;5063221;28;20072;-88
2023/12/19 07:33:19;;;;;;;2.45;0.00;;;;;;;5.15;74.33;99514.59;5056382;28;20084;-84
2023/12/19 07:35:46;;;;;;;0.15;0.00;;;;;;;5.17;74.19;99531.00;5068372;28;20111;-87
2023/12/19 07:38:13;;;;;;;0.55;0.00;;;;;;;5.16;74.43;99547.44;5069683;28;20052;-83
2023/12/19 07:40:41;;;;;;;2.25;0.10;;;;;;;5.14;73.90;99554.41;5049934;28;20048;-90
2023/12/19 07:43:08;;;;;;;2.80;0.10;;;;;;;5.08;73.78;99545.84;5064479;28;20076;-85
2023/12/19 07:45:36;;;;;;;2.03;0.10;;;;;;;5.04;73.50;99544.22;5072872;28;20064;-85
2023/12/19 07:48:05;;;;;;;1.08;0.05;;;;;;;5.04;73.44;99559.78;5071141;28;20114;-83
2023/12/19 07:50:32;;;;;;;1.58;0.00;;;;;;;5.00;73.58;99563.28;5067869;28;20088;-84
2023/12/19 07:52:59;;;;;;;2.00;0.03;;;;;;;4.95;73.62;99566.84;5069612;28;20079;-82
2023/12/19 07:55:27;;;;;;;0.68;0.32;;;;;;;4.94;73.24;99573.78;5053269;28;20088;-86
2023/12/19 07:57:59;;;;;;;0.43;0.00;;;;;;;4.90;73.08;99576.44;5076354;28;20051;-89
2023/12/19 08:00:26;;;;;;;0.30;0.10;;;;;;;4.89;73.08;99590.25;5071228;28;20523;-87
2023/12/19 08:02:54;;;;;;;1.52;0.10;;;;;;;4.81;72.90;99574.88;5054725;28;20049;-87
2023/12/19 08:05:23;;;;;;;3.83;0.00;;;;;;;4.71;72.92;99562.97;5069408;28;20044;-80
2023/12/19 08:07:50;;;;;;;0.20;0.00;;;;;;;4.82;73.11;99602.50;5062840;28;20099;-80
2023/12/19 08:10:18;;;;;;;1.85;0.00;;;;;;;4.77;72.54;99601.72;5063650;28;20040;-82
2023/12/19 08:12:45;;;;;;;0.95;0.03;;;;;;;4.73;72.46;99600.06;5067674;28;20480;-81
2023/12/19 08:15:12;;;;;;;1.52;0.00;;;;;;;4.71;72.46;99607.00;5072736;28;20476;-81
2023/12/19 08:17:39;;;;;;;2.78;0.00;;;;;;;4.73;72.49;99607.84;5068813;28;20053;-83
2023/12/19 08:20:10;;;;;;;1.75;0.35;;;;;;;4.69;72.42;99624.31;5070556;28;20048;-80
2023/12/19 08:22:39;;;;;;;1.00;0.10;;;;;;;4.67;72.59;99626.09;5051997;28;20091;-83
2023/12/19 08:25:07;;;;;;;0.40;0.00;;;;;;;4.64;72.38;99647.72;5069077;28;20103;-85
2023/12/19 08:27:35;;;;;;;0.38;0.00;;;;;;;4.60;72.32;99641.72;5062220;28;20070;-80
2023/12/19 08:30:03;;;;;;;0.85;0.00;;;;;;;4.53;72.17;99640.09;5052117;28;20412;-82
2023/12/19 08:32:30;;;;;;;1.10;0.10;;;;;;;4.54;72.59;99649.59;5068467;28;20496;-79
2023/12/19 08:34:58;;;;;;;0.20;0.10;;;;;;;4.53;72.30;99658.25;5070850;28;20489;-82
2023/12/19 08:37:26;;;;;;;1.63;0.10;;;;;;;4.52;71.92;99663.44;5069630;28;20613;-87
2023/12/19 08:39:57;;;;;;;0.57;0.00;;;;;;;4.51;71.84;99682.47;5063954;28;20493;-80
2023/12/19 08:42:24;;;;;;;3.35;0.00;;;;;;;4.50;71.53;99696.28;5071253;28;20392;-79
2023/12/19 08:44:55;;;;;;;0.70;0.00;;;;;;;4.47;71.79;99692.00;5066929;28;20508;-83
2023/12/19 08:47:22;;;;;;;1.08;0.75;;;;;;;4.43;71.54;99702.44;5064435;28;20067;-83
2023/12/19 08:49:52;;;;;;;0.40;0.10;;;;;;;4.40;71.50;99695.56;5070102;28;20049;-82
2023/12/19 08:52:19;;;;;;;1.00;0.15;;;;;;;4.41;71.48;99697.28;5065438;28;20052;-86
2023/12/19 08:54:46;;;;;;;2.05;0.65;;;;;;;4.37;71.45;99690.44;5070236;28;20052;-82
2023/12/19 08:57:15;;;;;;;1.27;0.10;;;;;;;4.31;71.49;99680.16;5066089;28;20056;-85
2023/12/19 08:59:42;;;;;;;1.58;0.00;;;;;;;4.30;71.18;99687.09;5070879;28;20163;-84
2023/12/19 09:02:10;;;;;;;2.38;0.10;;;;;;;4.28;71.24;99690.56;5068052;28;20060;-81
2023/12/19 09:04:37;;;;;;;4.78;0.32;;;;;;;4.27;71.17;99697.47;5071021;28;20583;-83
2023/12/19 09:07:04;;;;;;;1.27;0.03;;;;;;;4.21;71.29;99679.44;5064394;28;20133;-82
2023/12/19 09:09:31;;;;;;;1.13;0.10;;;;;;;4.21;71.31;99682.03;5072097;28;20059;-82
2023/12/19 09:11:58;;;;;;;3.70;0.10;;;;;;;4.21;71.15;99691.50;5069354;28;20041;-82
2023/12/19 09:14:27;;;;;;;0.40;0.10;;;;;;;4.17;71.02;99682.94;5069661;28;20583;-82
2023/12/19 09:16:54;;;;;;;0.93;0.08;;;;;;;4.14;70.86;99686.44;5079165;28;20045;-82
2023/12/19 09:19:21;;;;;;;0.20;0.10;;;;;;;4.16;71.24;99696.78;5068985;28;20056;-79
2023/12/19 09:21:48;;;;;;;2.40;0.30;;;;;;;4.10;70.77;99681.34;5069776;28;20062;-79
2023/12/19 09:24:16;;;;;;;1.40;0.20;;;;;;;4.11;70.68;99709.78;5070620;28;20076;-82
2023/12/19 09:26:43;;;;;;;0.77;0.00;;;;;;;4.09;70.92;99710.66;5069432;28;20394;-86
2023/12/19 09:29:10;;;;;;;1.20;0.03;;;;;;;4.08;70.90;99712.41;5078206;28;20044;-85
2023/12/19 09:31:39;;;;;;;2.45;0.03;;;;;;;4.06;70.73;99713.28;5073316;28;20547;-87
2023/12/19 09:34:08;;;;;;;0.40;0.00;;;;;;;4.03;70.77;99716.78;5072333;28;20052;-82
2023/12/19 09:36:36;;;;;;;3.90;0.10;;;;;;;4.02;70.79;99715.06;5068811;28;20052;-82
2023/12/19 09:39:04;;;;;;;1.60;0.10;;;;;;;4.00;70.57;99722.00;5067920;28;20139;-84
2023/12/19 09:41:31;;;;;;;0.20;0.10;;;;;;;3.95;70.68;99723.78;5072613;28;20064;-84
2023/12/19 09:43:58;;;;;;;0.85;0.10;;;;;;;3.94;70.40;99733.28;5074358;28;20072;-85
2023/12/19 09:46:29;;;;;;;0.65;0.03;;;;;;;3.90;70.76;99723.00;5065919;28;20498;-81
2023/12/19 09:48:58;;;;;;;2.55;0.10;;;;;;;3.92;70.71;99729.00;5070538;28;20045;-80
2023/12/19 09:51:29;;;;;;;0.98;0.05;;;;;;;3.90;70.31;99733.34;5058963;28;20758;-77
2023/12/19 09:53:57;;;;;;;1.50;0.00;;;;;;;3.88;70.46;99740.28;5067118;28;20158;-79
2023/12/19 09:56:25;;;;;;;3.15;0.10;;;;;;;3.80;70.31;99739.50;5065388;28;20496;-81
2023/12/19 09:58:54;;;;;;;0.93;0.10;;;;;;;3.82;70.49;99748.09;5069193;28;20408;-78
2023/12/19 10:01:22;;;;;;;1.00;0.10;;;;;;;3.80;70.05;99737.75;5069180;28;20404;-80
2023/12/19 10:03:50;;;;;;;1.30;0.20;;;;;;;3.76;70.27;99733.50;5064450;28;20052;-81
2023/12/19 10:06:18;;;;;;;2.75;0.10;;;;;;;3.80;69.84;99744.66;5071552;28;20044;-80
2023/12/19 10:08:45;;;;;;;1.70;0.05;;;;;;;3.78;70.12;99749.00;5072579;28;20264;-83
2023/12/19 10:11:18;;;;;;;0.77;0.10;;;;;;;3.74;69.95;99745.59;5067349;28;20073;-87
2023/12/19 10:13:46;;;;;;;0.63;0.10;;;;;;;3.73;70.04;99747.34;5073950;28;20049;-83
2023/12/19 10:16:17;;;;;;;0.30;0.00;;;;;;;3.71;69.82;99746.50;5072972;28;20056;-86
2023/12/19 10:18:45;;;;;;;2.63;0.28;;;;;;;3.65;70.09;99743.97;5071683;28;20049;-83
2023/12/19 10:21:13;;;;;;;0.60;0.10;;;;;;;3.68;70.12;99746.53;5071902;28;20095;-82
2023/12/19 10:23:42;;;;;;;3.47;0.00;;;;;;;3.60;70.33;99740.56;5070603;28;20088;-83
2023/12/19 10:26:10;;;;;;;0.55;0.10;;;;;;;3.66;70.04;99740.50;5065789;28;20071;-79
2023/12/19 10:28:38;;;;;;;2.30;0.10;;;;;;;3.65;69.92;99738.81;5066652;28;20053;-77
2023/12/19 10:31:11;;;;;;;1.70;0.10;;;;;;;3.64;69.97;99734.50;5070113;28;20044;-79
2023/12/19 10:33:42;;;;;;;0.82;0.10;;;;;;;3.61;69.65;99726.78;5066781;28;20044;-83
2023/12/19 10:36:09;;;;;;;2.08;0.00;;;;;;;3.62;69.80;99725.91;5061622;28;20049;-77
2023/12/19 10:38:48;;;;;;;4.22;0.30;;;;;;;3.54;69.95;99712.19;5070505;28;20051;-78
2023/12/19 10:41:22;;;;;;;1.98;0.20;;;;;;;3.61;69.93;99729.38;5066364;28;20095;-76
2023/12/19 10:43:50;;;;;;;1.40;0.10;;;;;;;3.60;69.65;99727.63;5065947;28;20036;-77
2023/12/19 10:46:19;;;;;;;1.00;0.10;;;;;;;3.56;69.90;99719.94;5061032;28;20060;-88
2023/12/19 10:48:47;;;;;;;5.03;0.20;;;;;;;3.59;69.67;99725.09;5064849;28;20051;-80
2023/12/19 10:51:17;;;;;;;0.98;0.05;;;;;;;3.58;69.80;99719.06;5067313;28;20048;-81
2023/12/19 10:53:58;;;;;;;2.38;0.10;;;;;;;3.55;69.79;99721.66;5070185;28;20048;-80
2023/12/19 10:56:27;;;;;;;0.25;0.10;;;;;;;3.57;69.90;99717.34;5068398;28;20059;-80
2023/12/19 10:58:58;;;;;;;1.25;0.10;;;;;;;3.55;69.61;99716.47;5067470;28;20481;-82
2023/12/19 11:01:29;;;;;;;3.30;0.15;;;;;;;3.53;69.55;99713.06;5064180;28;20083;-83
2023/12/19 11:03:59;;;;;;;0.43;0.00;;;;;;;3.56;69.15;99710.47;5069381;28;20106;-78
2023/12/19 11:06:32;;;;;;;1.70;0.10;;;;;;;3.35;69.32;99679.66;5059997;28;20515;-79
2023/12/19 11:09:05;;;;;;;2.00;0.00;;;;;;;3.38;69.24;99687.38;5067351;28;20458;-77
2023/12/19 11:11:38;;;;;;;1.02;0.10;;;;;;;3.56;69.47;99719.94;5062041;28;20041;-80
2023/12/19 11:14:06;;;;;;;1.38;0.00;;;;;;;3.49;69.35;99704.47;5060262;28;20052;-81
2023/12/19 11:16:47;;;;;;;2.03;0.10;;;;;;;3.55;69.07;99716.47;5063712;28;20055;-78
2023/12/19 11:19:22;;;;;;;1.92;0.10;;;;;;;3.53;69.17;99704.47;5068235;28;20080;-77
2023/12/19 11:21:58;;;;;;;1.10;0.00;;;;;;;3.52;68.93;99688.06;5070152;28;20044;-83
2023/12/19 11:24:34;;;;;;;1.10;0.10;;;;;;;3.53;68.69;99700.16;5067533;28;20048;-80
2023/12/19 11:27:08;;;;;;;0.60;0.08;;;;;;;3.52;68.61;99701.00;5068330;28;20068;-82
2023/12/19 11:29:46;;;;;;;0.90;0.05;;;;;;;3.50;68.84;99701.03;5063014;28;20068;-82
2023/12/19 11:32:37;;;;;;;3.85;0.10;;;;;;;3.51;68.76;99699.28;5054936;28;20135;-81
2023/12/19 11:35:14;;;;;;;0.95;0.35;;;;;;;3.49;68.86;99701.03;5061819;28;20052;-82
2023/12/19 11:37:43;;;;;;;2.10;0.10;;;;;;;3.30;68.63;99661.63;5065218;28;20517;-82
2023/12/19 11:40:18;;;;;;;2.78;0.10;;;;;;;3.48;68.55;99701.91;5055215;28;20095;-84
2023/12/19 11:42:48;;;;;;;2.83;0.10;;;;;;;3.45;68.49;99687.28;5070333;28;20130;-84
2023/12/19 11:45:45;;;;;;;3.30;0.10;;;;;;;3.45;68.90;99689.88;5065620;28;20094;-86
2023/12/19 11:48:37;;;;;;;4.70;0.05;;;;;;;3.45;68.50;99689.88;5010397;28;20525;-84